createdAt,value
2018-10-17T00:01:05.109Z,35.40
2018-10-17T00:03:33.945Z,34.63
2018-10-17T00:06:02.754Z,50.70
2018-10-17T00:08:31.659Z,50.33
2018-10-17T00:11:00.570Z,34.87
2018-10-17T00:13:29.270Z,31.03
2018-10-17T00:16:02.754Z,37.53
2018-10-17T00:18:31.495Z,40.43
2018-10-17T00:21:00.239Z,36.30
2018-10-17T00:23:29.142Z,29.23
2018-10-17T00:26:02.739Z,35.60
2018-10-17T00:28:34.456Z,44.40
2018-10-17T00:31:03.766Z,44.73
2018-10-17T00:33:32.676Z,36.30
2018-10-17T00:36:02.494Z,48.73
2018-10-17T00:38:31.272Z,45.43
2018-10-17T00:41:00.209Z,36.53
2018-10-17T00:43:29.019Z,52.70
2018-10-17T00:45:58.936Z,42.50
2018-10-17T00:48:27.821Z,41.53
2018-10-17T00:50:56.757Z,43.13
2018-10-17T00:53:25.538Z,50.03
2018-10-17T00:55:54.295Z,33.00
2018-10-17T00:58:23.261Z,53.47
2018-10-17T01:00:51.909Z,48.20
2018-10-17T01:03:20.627Z,45.90
2018-10-17T01:05:49.370Z,51.73
2018-10-17T01:08:18.077Z,46.20
2018-10-17T01:10:46.684Z,47.67
2018-10-17T01:13:15.461Z,49.77
2018-10-17T01:15:44.106Z,38.93
2018-10-17T01:18:12.676Z,38.43
2018-10-17T01:20:41.392Z,42.10
2018-10-17T01:23:10.256Z,41.93
2018-10-17T01:25:38.889Z,70.80
2018-10-17T01:28:07.547Z,47.00
2018-10-17T01:30:36.187Z,46.80
2018-10-17T01:33:04.998Z,44.17
2018-10-17T01:35:33.815Z,58.37
2018-10-17T01:38:02.499Z,47.30
2018-10-17T01:40:31.131Z,48.30
2018-10-17T01:42:59.881Z,58.17
2018-10-17T01:45:28.580Z,52.57
2018-10-17T01:47:58.397Z,48.83
2018-10-17T01:50:26.933Z,45.43
2018-10-17T01:52:55.593Z,60.23
2018-10-17T01:55:24.516Z,59.00
2018-10-17T01:57:53.291Z,49.00
2018-10-17T02:00:22.018Z,39.40
2018-10-17T02:02:50.765Z,51.30
2018-10-17T02:05:19.434Z,47.20
2018-10-17T02:07:48.156Z,52.30
2018-10-17T02:10:16.774Z,64.77
2018-10-17T02:12:45.473Z,53.93
2018-10-17T02:15:14.046Z,51.03
2018-10-17T02:17:42.800Z,45.33
2018-10-17T02:20:11.439Z,47.53
2018-10-17T02:22:40.169Z,57.67
2018-10-17T02:25:08.795Z,51.73
2018-10-17T02:27:37.531Z,45.90
2018-10-17T02:30:06.928Z,43.80
2018-10-17T02:32:35.552Z,65.63
2018-10-17T02:35:09.926Z,60.20
2018-10-17T02:37:38.460Z,53.67
2018-10-17T02:40:07.184Z,67.10
2018-10-17T02:42:35.966Z,63.33
2018-10-17T02:45:04.786Z,62.73
2018-10-17T02:47:33.525Z,64.00
2018-10-17T02:50:06.450Z,49.80
2018-10-17T02:52:35.532Z,50.47
2018-10-17T02:55:04.337Z,62.67
2018-10-17T02:57:33.058Z,70.97
2018-10-17T03:00:02.234Z,57.50
2018-10-17T03:02:31.036Z,65.87
2018-10-17T03:04:59.786Z,62.47
2018-10-17T03:07:28.647Z,53.83
2018-10-17T03:09:57.331Z,54.60
2018-10-17T03:12:26.170Z,50.13
2018-10-17T03:14:55.131Z,48.30
2018-10-17T03:17:23.693Z,68.33
2018-10-17T03:19:52.398Z,55.80
2018-10-17T03:22:21.109Z,45.23
2018-10-17T03:24:49.892Z,59.60
2018-10-17T03:27:18.579Z,46.30
2018-10-17T03:29:47.216Z,50.43
2018-10-17T03:32:15.906Z,53.33
2018-10-17T03:34:44.576Z,47.80
2018-10-17T03:37:13.252Z,53.50
2018-10-17T03:39:41.844Z,52.53
2018-10-17T03:42:10.534Z,49.50
2018-10-17T03:44:39.307Z,57.73
2018-10-17T03:47:08.059Z,39.87
2018-10-17T03:49:36.694Z,52.67
2018-10-17T03:52:05.800Z,41.53
2018-10-17T03:54:34.402Z,41.17
2018-10-17T03:57:03.004Z,43.17
2018-10-17T03:59:31.810Z,44.40
2018-10-17T04:02:00.373Z,53.10
2018-10-17T04:04:29.043Z,49.70
2018-10-17T04:06:57.798Z,52.77
2018-10-17T04:09:26.471Z,42.60
2018-10-17T04:11:55.218Z,39.57
2018-10-17T04:14:23.915Z,45.10
2018-10-17T04:16:52.700Z,39.13
2018-10-17T04:19:21.562Z,51.90
2018-10-17T04:21:50.097Z,50.03
2018-10-17T04:24:18.745Z,49.10
2018-10-17T04:26:48.134Z,44.20
2018-10-17T04:29:17.049Z,52.77
2018-10-17T04:31:45.764Z,65.93
2018-10-17T04:34:14.560Z,45.83
2018-10-17T04:36:43.297Z,50.73
2018-10-17T04:39:12.701Z,52.27
2018-10-17T04:41:41.844Z,46.63
2018-10-17T04:44:11.824Z,48.97
2018-10-17T04:46:40.902Z,48.93
2018-10-17T04:49:10.284Z,49.53
2018-10-17T04:51:38.859Z,49.70
2018-10-17T04:54:07.860Z,66.70
2018-10-17T04:56:36.634Z,60.97
2018-10-17T04:59:05.547Z,57.20
2018-10-17T05:01:34.382Z,52.33
2018-10-17T05:04:03.037Z,54.43
2018-10-17T05:06:31.759Z,51.93
2018-10-17T05:09:00.636Z,53.60
2018-10-17T05:11:29.322Z,54.63
2018-10-17T05:13:58.012Z,53.97
2018-10-17T05:16:27.711Z,55.43
2018-10-17T05:18:56.520Z,50.73
2018-10-17T05:21:25.185Z,54.77
2018-10-17T05:23:54.028Z,56.73
2018-10-17T05:26:22.818Z,65.07
2018-10-17T05:28:51.570Z,50.17
2018-10-17T05:31:20.338Z,54.93
2018-10-17T05:33:49.125Z,64.60
2018-10-17T05:36:17.819Z,69.83
2018-10-17T05:38:46.494Z,91.80
2018-10-17T05:41:15.280Z,89.13
2018-10-17T05:43:43.964Z,81.87
2018-10-17T05:46:12.848Z,69.40
2018-10-17T05:48:41.657Z,109.47
2018-10-17T05:51:10.500Z,65.10
2018-10-17T05:53:39.128Z,68.03
2018-10-17T05:56:07.800Z,60.93
2018-10-17T05:58:36.448Z,75.30
2018-10-17T06:01:05.562Z,58.57
2018-10-17T06:03:34.301Z,56.27
2018-10-17T06:06:03.030Z,57.97
2018-10-17T06:08:32.028Z,48.10
2018-10-17T06:11:00.785Z,68.57
2018-10-17T06:13:29.504Z,56.23
2018-10-17T06:15:58.292Z,56.17
2018-10-17T06:18:27.092Z,56.37
2018-10-17T06:20:55.899Z,57.23
2018-10-17T06:23:25.279Z,61.47
2018-10-17T06:25:54.241Z,57.23
2018-10-17T06:28:23.081Z,56.97
2018-10-17T06:30:52.120Z,53.43
2018-10-17T06:33:20.765Z,47.73
2018-10-17T06:35:49.684Z,67.67
2018-10-17T06:38:18.485Z,64.30
2018-10-17T06:40:47.327Z,58.30
2018-10-17T06:43:16.120Z,68.70
2018-10-17T06:45:44.978Z,62.87
2018-10-17T06:48:13.734Z,56.60
2018-10-17T06:50:42.847Z,58.80
2018-10-17T06:53:11.551Z,50.17
2018-10-17T06:55:40.627Z,55.23
2018-10-17T06:58:09.701Z,70.57
2018-10-17T07:00:38.334Z,63.23
2018-10-17T07:03:07.096Z,56.37
2018-10-17T07:05:35.848Z,68.97
2018-10-17T07:08:04.616Z,62.03
2018-10-17T07:10:33.331Z,48.53
2018-10-17T07:13:02.145Z,73.57
2018-10-17T07:15:31.031Z,103.37
2018-10-17T07:17:59.628Z,67.60
2018-10-17T07:20:28.266Z,63.30
2018-10-17T07:22:56.943Z,61.00
2018-10-17T07:25:25.678Z,55.40
2018-10-17T07:27:54.381Z,47.67
2018-10-17T07:30:23.334Z,78.23
2018-10-17T07:32:52.022Z,62.83
2018-10-17T07:35:20.824Z,58.30
2018-10-17T07:37:49.753Z,58.53
2018-10-17T07:40:18.588Z,61.87
2018-10-17T07:42:47.252Z,48.97
2018-10-17T07:45:15.926Z,50.43
2018-10-17T07:47:45.092Z,41.00
2018-10-17T07:50:14.895Z,44.97
2018-10-17T07:52:43.718Z,34.27
2018-10-17T07:55:13.013Z,46.87
2018-10-17T07:57:41.864Z,37.83
2018-10-17T08:00:13.569Z,37.53
2018-10-17T08:02:42.268Z,42.80
2018-10-17T08:05:11.407Z,33.50
2018-10-17T08:07:40.170Z,34.30
2018-10-17T08:10:12.624Z,37.57
2018-10-17T08:12:41.270Z,33.07
2018-10-17T08:15:10.532Z,31.57
2018-10-17T08:17:39.277Z,28.43
2018-10-17T08:20:11.039Z,32.60
2018-10-17T08:22:40.326Z,29.93
2018-10-17T08:25:10.320Z,22.27
2018-10-17T08:27:39.171Z,30.70
2018-10-17T08:30:09.693Z,21.30
2018-10-17T08:32:40.427Z,21.80
2018-10-17T08:35:09.749Z,27.10
2018-10-17T08:37:39.251Z,21.70
2018-10-17T08:40:10.039Z,24.20
2018-10-17T08:42:38.717Z,25.43
2018-10-17T08:45:08.077Z,25.50
2018-10-17T08:47:36.631Z,30.80
2018-10-17T08:50:06.917Z,21.67
2018-10-17T08:52:35.677Z,29.80
2018-10-17T08:55:04.923Z,26.67
2018-10-17T08:57:33.666Z,25.73
2018-10-17T09:00:03.052Z,18.50
2018-10-17T09:02:32.007Z,24.73
2018-10-17T09:05:01.037Z,18.50
2018-10-17T09:07:31.376Z,21.17
2018-10-17T09:10:00.268Z,23.53
2018-10-17T09:12:29.132Z,20.87
2018-10-17T09:14:58.214Z,23.43
2018-10-17T09:17:27.242Z,23.63
2018-10-17T09:19:56.505Z,21.80
2018-10-17T09:22:26.329Z,20.63
2018-10-17T09:24:54.954Z,39.90
2018-10-17T09:27:23.692Z,23.40
2018-10-17T09:30:03.490Z,18.50
2018-10-17T09:32:32.827Z,20.40
2018-10-17T09:35:01.714Z,24.00
2018-10-17T09:37:30.396Z,19.43
2018-10-17T09:40:00.966Z,21.07
2018-10-17T09:42:29.869Z,16.47
2018-10-17T09:44:58.603Z,13.93
2018-10-17T09:47:27.859Z,17.33
2018-10-17T09:50:05.756Z,17.00
2018-10-17T09:52:34.851Z,33.47
2018-10-17T09:55:03.834Z,18.70
2018-10-17T09:57:32.798Z,22.93
2018-10-17T10:00:08.455Z,19.20
2018-10-17T10:02:40.042Z,15.73
2018-10-17T10:05:08.891Z,15.77
2018-10-17T10:07:39.473Z,16.03
2018-10-17T10:10:12.318Z,17.17
2018-10-17T10:12:40.998Z,17.00
2018-10-17T10:15:10.657Z,19.90
2018-10-17T10:17:39.764Z,23.30
2018-10-17T10:20:08.781Z,14.60
2018-10-17T10:22:37.548Z,15.30
2018-10-17T10:25:07.059Z,30.43
2018-10-17T10:27:35.950Z,22.13
2018-10-17T10:30:07.269Z,22.50
2018-10-17T10:32:40.692Z,16.33
2018-10-17T10:35:09.860Z,26.10
2018-10-17T10:37:38.951Z,25.33
2018-10-17T10:40:10.398Z,19.77
2018-10-17T10:42:39.104Z,18.93
2018-10-17T10:45:08.628Z,28.70
2018-10-17T10:47:37.642Z,26.73
2018-10-17T10:50:09.591Z,29.17
2018-10-17T10:52:38.297Z,30.83
2018-10-17T10:55:08.127Z,20.40
2018-10-17T10:57:37.148Z,19.63
2018-10-17T11:00:16.168Z,25.23
2018-10-17T11:02:45.048Z,17.30
2018-10-17T11:05:14.274Z,17.90
2018-10-17T11:07:43.980Z,19.23
2018-10-17T11:10:18.143Z,22.47
2018-10-17T11:12:47.003Z,20.80
2018-10-17T11:15:16.111Z,15.63
2018-10-17T11:17:44.951Z,27.73
2018-10-17T11:20:13.936Z,24.63
2018-10-17T11:22:42.700Z,26.67
2018-10-17T11:25:14.894Z,20.80
2018-10-17T11:27:43.761Z,28.23
2018-10-17T11:30:15.936Z,32.50
2018-10-17T11:32:44.823Z,24.90
2018-10-17T11:35:13.748Z,17.13
2018-10-17T11:37:42.555Z,24.83
2018-10-17T11:40:12.658Z,18.73
2018-10-17T11:42:41.577Z,27.50
2018-10-17T11:45:10.349Z,15.50
2018-10-17T11:47:39.105Z,21.57
2018-10-17T11:50:09.441Z,17.40
2018-10-17T11:52:45.504Z,18.90
2018-10-17T11:55:14.421Z,22.40
2018-10-17T11:57:43.172Z,16.57
2018-10-17T12:00:13.344Z,24.20
2018-10-17T12:02:43.845Z,106.60
2018-10-17T12:05:14.251Z,17.03
2018-10-17T12:10:17.681Z,19.53
2018-10-17T12:12:46.423Z,21.63
2018-10-17T12:15:16.197Z,24.10
2018-10-17T12:17:45.548Z,22.30
2018-10-17T12:20:15.271Z,34.60
2018-10-17T12:22:47.301Z,24.13
2018-10-17T12:25:16.111Z,19.27
2018-10-17T12:27:45.271Z,29.97
2018-10-17T12:30:15.095Z,16.83
2018-10-17T12:32:49.172Z,17.37
2018-10-17T12:35:18.681Z,16.77
2018-10-17T12:37:47.426Z,15.60
2018-10-17T12:40:16.363Z,29.10
2018-10-17T12:42:46.885Z,21.23
2018-10-17T12:45:16.048Z,16.77
2018-10-17T12:47:44.788Z,30.33
2018-10-17T12:50:13.872Z,20.20
2018-10-17T12:52:48.367Z,14.97
2018-10-17T12:55:17.088Z,36.93
2018-10-17T12:57:46.002Z,31.23
2018-10-17T13:00:17.740Z,24.47
2018-10-17T13:02:55.509Z,20.00
2018-10-17T13:05:24.428Z,21.53
2018-10-17T13:07:53.164Z,15.37
2018-10-17T13:10:21.882Z,30.67
2018-10-17T13:12:51.332Z,18.13
2018-10-17T13:15:20.343Z,24.00
2018-10-17T13:17:49.119Z,20.60
2018-10-17T13:20:18.047Z,21.47
2018-10-17T13:22:49.590Z,14.07
2018-10-17T13:25:18.272Z,18.93
2018-10-17T13:27:47.827Z,13.50
2018-10-17T13:30:17.584Z,15.60
2018-10-17T13:32:54.263Z,15.27
2018-10-17T13:35:22.960Z,13.53
2018-10-17T13:37:52.802Z,14.10
2018-10-17T13:40:21.583Z,17.73
2018-10-17T13:42:50.794Z,17.27
2018-10-17T13:45:19.807Z,18.77
2018-10-17T13:47:48.700Z,15.67
2018-10-17T13:50:17.698Z,15.33
2018-10-17T13:52:49.791Z,17.80
2018-10-17T13:55:19.282Z,21.10
2018-10-17T13:57:48.053Z,20.57
2018-10-17T14:00:16.855Z,18.70
2018-10-17T14:02:45.553Z,26.93
2018-10-17T14:05:15.026Z,14.30
2018-10-17T14:07:44.089Z,20.70
2018-10-17T14:10:12.863Z,16.03
2018-10-17T14:12:42.052Z,16.27
2018-10-17T14:15:10.884Z,17.37
2018-10-17T14:17:39.664Z,37.63
2018-10-17T14:20:08.518Z,13.17
2018-10-17T14:22:46.772Z,18.73
2018-10-17T14:25:15.935Z,16.33
2018-10-17T14:27:44.778Z,14.30
2018-10-17T14:30:13.946Z,17.83
2018-10-17T14:32:42.633Z,14.60
2018-10-17T14:35:13.214Z,16.87
2018-10-17T14:37:42.241Z,27.13
2018-10-17T14:40:11.967Z,18.03
2018-10-17T14:42:50.063Z,21.27
2018-10-17T14:45:19.177Z,14.23
2018-10-17T14:47:48.168Z,18.20
2018-10-17T14:50:16.987Z,14.77
2018-10-17T14:52:52.768Z,20.13
2018-10-17T14:55:21.557Z,12.03
2018-10-17T14:57:50.188Z,29.37
2018-10-17T15:00:18.950Z,22.00
2018-10-17T15:02:48.885Z,24.17
2018-10-17T15:05:18.889Z,32.37
2018-10-17T15:07:47.848Z,15.50
2018-10-17T15:10:16.891Z,27.40
2018-10-17T15:12:49.699Z,24.90
2018-10-17T15:15:18.438Z,31.70
2018-10-17T15:17:49.040Z,18.53
2018-10-17T15:20:18.122Z,18.30
2018-10-17T15:22:54.500Z,21.33
2018-10-17T15:25:23.488Z,29.93
2018-10-17T15:27:52.677Z,21.30
2018-10-17T15:30:21.768Z,18.93
2018-10-17T15:33:05.002Z,23.90
2018-10-17T15:35:33.779Z,17.60
2018-10-17T15:38:02.519Z,29.70
2018-10-17T15:40:31.448Z,33.43
2018-10-17T15:43:01.101Z,28.23
2018-10-17T15:45:29.904Z,30.40
2018-10-17T15:47:58.772Z,47.40
2018-10-17T15:50:27.463Z,36.30
2018-10-17T15:52:58.859Z,39.60
2018-10-17T15:55:27.608Z,40.47
2018-10-17T15:57:57.180Z,40.63
2018-10-17T16:00:26.073Z,45.87
2018-10-17T16:03:01.976Z,52.23
2018-10-17T16:05:30.812Z,45.10
2018-10-17T16:07:59.621Z,31.77
2018-10-17T16:10:28.447Z,34.67
2018-10-17T16:12:57.200Z,44.77
2018-10-17T16:15:26.215Z,44.33
2018-10-17T16:17:55.262Z,42.17
2018-10-17T16:20:24.328Z,55.70
2018-10-17T16:22:53.112Z,42.77
2018-10-17T16:25:22.148Z,56.43
2018-10-17T16:27:51.275Z,48.97
2018-10-17T16:30:20.155Z,44.63
2018-10-17T16:32:52.584Z,43.80
2018-10-17T16:35:21.398Z,64.97
2018-10-17T16:37:50.179Z,84.47
2018-10-17T16:40:19.557Z,46.93
2018-10-17T16:42:48.196Z,61.37
2018-10-17T16:45:18.148Z,53.37
2018-10-17T16:47:47.457Z,44.87
2018-10-17T16:50:16.682Z,44.87
2018-10-17T16:52:45.673Z,44.37
2018-10-17T16:55:14.742Z,57.93
2018-10-17T16:57:43.710Z,65.00
2018-10-17T17:00:13.289Z,51.60
2018-10-17T17:02:42.263Z,47.20
2018-10-17T17:05:12.995Z,51.13
2018-10-17T17:07:41.987Z,56.90
2018-10-17T17:10:12.004Z,44.40
2018-10-17T17:12:40.933Z,64.63
2018-10-17T17:15:13.027Z,67.00
2018-10-17T17:17:42.514Z,50.40
2018-10-17T17:20:12.158Z,57.20
2018-10-17T17:22:41.617Z,58.00
2018-10-17T17:25:10.844Z,49.00
2018-10-17T17:27:39.912Z,74.63
2018-10-17T17:30:13.335Z,67.57
2018-10-17T17:32:42.109Z,59.37
2018-10-17T17:35:10.936Z,65.80
2018-10-17T17:37:39.913Z,65.53
2018-10-17T17:40:10.219Z,58.83
2018-10-17T17:42:39.041Z,68.80
2018-10-17T17:45:08.576Z,61.27
2018-10-17T17:47:37.825Z,73.03
2018-10-17T17:50:07.444Z,58.67
2018-10-17T17:52:36.370Z,60.30
2018-10-17T17:55:09.704Z,79.77
2018-10-17T17:57:39.642Z,79.70
2018-10-17T18:00:09.107Z,81.97
2018-10-17T18:02:37.791Z,107.87
2018-10-17T18:05:07.378Z,91.13
2018-10-17T18:07:36.705Z,77.00
2018-10-17T18:10:05.739Z,112.93
2018-10-17T18:12:34.784Z,75.40
2018-10-17T18:15:03.584Z,86.23
2018-10-17T18:17:32.337Z,85.20
2018-10-17T18:20:01.461Z,66.03
2018-10-17T18:22:30.727Z,84.87
2018-10-17T18:24:59.808Z,96.23
2018-10-17T18:27:28.752Z,88.43
2018-10-17T18:29:58.300Z,85.97
2018-10-17T18:32:27.533Z,105.13
2018-10-17T18:34:56.474Z,93.20
2018-10-17T18:37:25.507Z,110.10
2018-10-17T18:39:54.486Z,85.17
2018-10-17T18:42:23.462Z,100.63
2018-10-17T18:44:52.274Z,82.97
2018-10-17T18:47:21.404Z,94.90
2018-10-17T18:49:50.375Z,88.93
2018-10-17T18:52:19.217Z,89.47
2018-10-17T18:54:48.446Z,86.83
2018-10-17T18:57:17.496Z,80.73
2018-10-17T18:59:46.271Z,108.30
2018-10-17T19:02:15.078Z,107.83
2018-10-17T19:04:43.738Z,93.37
2018-10-17T19:07:12.958Z,83.87
2018-10-17T19:09:42.152Z,86.03
2018-10-17T19:12:10.956Z,92.47
2018-10-17T19:14:39.783Z,75.57
2018-10-17T19:17:09.294Z,82.00
2018-10-17T19:19:38.478Z,103.93
2018-10-17T19:22:07.428Z,104.47
2018-10-17T19:24:36.651Z,92.47
2018-10-17T19:27:05.750Z,88.80
2018-10-17T19:29:35.385Z,73.40
2018-10-17T19:32:05.972Z,104.07
2018-10-17T19:34:34.894Z,92.57
2018-10-17T19:37:03.604Z,89.03
2018-10-17T19:39:32.658Z,64.10
2018-10-17T19:42:01.547Z,82.53
2018-10-17T19:44:30.733Z,75.27
2018-10-17T19:46:59.731Z,79.50
2018-10-17T19:49:28.426Z,70.50
2018-10-17T19:51:57.829Z,84.20
2018-10-17T19:54:26.904Z,84.87
2018-10-17T19:56:56.058Z,78.40
2018-10-17T19:59:24.745Z,81.27
2018-10-17T20:01:53.636Z,75.13
2018-10-17T20:04:22.619Z,72.73
2018-10-17T20:06:51.796Z,89.83
2018-10-17T20:09:20.647Z,71.23
2018-10-17T20:11:49.411Z,68.93
2018-10-17T20:14:18.629Z,98.53
2018-10-17T20:16:47.272Z,81.67
2018-10-17T20:19:16.328Z,71.83
2018-10-17T20:21:45.274Z,95.10
2018-10-17T20:24:14.060Z,72.30
2018-10-17T20:26:42.847Z,70.10
2018-10-17T20:29:11.713Z,76.37
2018-10-17T20:31:40.526Z,70.90
2018-10-17T20:34:09.286Z,86.77
2018-10-17T20:36:37.915Z,67.47
2018-10-17T20:39:11.043Z,75.10
2018-10-17T20:41:40.232Z,72.27
2018-10-17T20:44:10.047Z,88.33
2018-10-17T20:46:38.801Z,96.03
2018-10-17T20:49:09.013Z,100.47
2018-10-17T20:51:38.096Z,101.50
2018-10-17T20:54:07.423Z,81.53
2018-10-17T20:56:36.529Z,84.90
2018-10-17T20:59:05.751Z,91.90
2018-10-17T21:01:34.878Z,105.30
2018-10-17T21:04:04.080Z,101.67
2018-10-17T21:06:32.808Z,116.33
2018-10-17T21:09:02.509Z,111.50
2018-10-17T21:11:31.322Z,94.13
2018-10-17T21:14:00.481Z,100.47
2018-10-17T21:16:29.510Z,91.97
2018-10-17T21:18:58.755Z,91.03
2018-10-17T21:21:27.418Z,105.07
2018-10-17T21:23:56.111Z,84.10
2018-10-17T21:26:24.923Z,99.07
2018-10-17T21:28:54.604Z,102.40
2018-10-17T21:31:24.184Z,92.43
2018-10-17T21:33:53.769Z,105.03
2018-10-17T21:36:22.585Z,94.97
2018-10-17T21:38:51.711Z,112.37
2018-10-17T21:41:21.324Z,108.97
2018-10-17T21:43:51.546Z,106.67
2018-10-17T21:46:20.998Z,105.37
2018-10-17T21:48:49.817Z,92.93
2018-10-17T21:51:19.213Z,105.63
2018-10-17T21:53:48.345Z,88.23
2018-10-17T21:56:17.198Z,117.67
2018-10-17T21:58:46.343Z,116.00
2018-10-17T22:01:15.060Z,114.70
2018-10-17T22:03:44.156Z,103.07
2018-10-17T22:06:12.927Z,107.47
2018-10-17T22:08:42.395Z,107.67
2018-10-17T22:11:11.124Z,93.30
2018-10-17T22:13:40.275Z,126.63
2018-10-17T22:16:09.020Z,125.57
2018-10-17T22:18:37.778Z,103.93
2018-10-17T22:21:07.077Z,114.07
2018-10-17T22:23:35.989Z,135.00
2018-10-17T22:26:04.873Z,102.97
2018-10-17T22:28:34.114Z,106.90
2018-10-17T22:31:03.030Z,136.10
2018-10-17T22:33:32.073Z,132.73
2018-10-17T22:36:00.857Z,125.33
2018-10-17T22:38:30.041Z,107.47
2018-10-17T22:40:58.858Z,93.77
2018-10-17T22:43:28.396Z,123.23
2018-10-17T22:45:58.265Z,116.00
2018-10-17T22:48:27.134Z,125.37
2018-10-17T22:50:56.002Z,92.40
2018-10-17T22:53:24.782Z,99.30
2018-10-17T22:55:53.600Z,104.70
2018-10-17T22:58:22.644Z,95.90
2018-10-17T23:00:51.633Z,107.87
2018-10-17T23:03:20.313Z,122.80
2018-10-17T23:05:49.010Z,120.97
2018-10-17T23:08:18.513Z,120.20
2018-10-17T23:10:47.642Z,112.97
2018-10-17T23:13:16.695Z,109.27
2018-10-17T23:15:45.681Z,126.93
2018-10-17T23:18:14.584Z,131.10
2018-10-17T23:20:43.655Z,123.23
2018-10-17T23:23:12.394Z,124.80
2018-10-17T23:25:41.880Z,152.70
2018-10-17T23:28:10.534Z,140.83
2018-10-17T23:30:39.299Z,116.27
2018-10-17T23:33:08.422Z,120.70
2018-10-17T23:35:37.878Z,129.23
2018-10-17T23:38:07.066Z,127.93
2018-10-17T23:40:35.843Z,120.67
2018-10-17T23:43:07.970Z,112.07
2018-10-17T23:45:37.077Z,105.63
2018-10-17T23:48:07.497Z,132.47
2018-10-17T23:50:37.754Z,130.53
2018-10-17T23:53:07.556Z,118.70
2018-10-17T23:55:37.175Z,133.20
2018-10-17T23:58:06.380Z,153.97
